sensor_id;sensor_type;location;lat;lon;timestamp;P1;durP1;ratioP1;P2;durP2;ratioP2
57969;SDS011;43777;42.656;23.264;2022-07-05T00:00:18;9.75;;;8.73;;
57969;SDS011;43777;42.656;23.264;2022-07-05T00:02:44;10.00;;;9.00;;
57969;SDS011;43777;42.656;23.264;2022-07-05T00:05:20;9.55;;;8.65;;
57969;SDS011;43777;42.656;23.264;2022-07-05T00:07:46;9.32;;;7.97;;
57969;SDS011;43777;42.656;23.264;2022-07-05T00:10:12;11.30;;;8.80;;
57969;SDS011;43777;42.656;23.264;2022-07-05T00:12:38;9.65;;;8.20;;
57969;SDS011;43777;42.656;23.264;2022-07-05T00:15:05;58.72;;;11.68;;
57969;SDS011;43777;42.656;23.264;2022-07-05T00:17:31;8.77;;;7.88;;
57969;SDS011;43777;42.656;23.264;2022-07-05T00:19:57;10.57;;;7.63;;
57969;SDS011;43777;42.656;23.264;2022-07-05T00:22:23;7.53;;;6.72;;
57969;SDS011;43777;42.656;23.264;2022-07-05T00:24:49;10.52;;;7.40;;
57969;SDS011;43777;42.656;23.264;2022-07-05T00:27:15;11.57;;;7.78;;
57969;SDS011;43777;42.656;23.264;2022-07-05T00:29:41;8.00;;;7.20;;
57969;SDS011;43777;42.656;23.264;2022-07-05T00:32:07;11.07;;;7.20;;
57969;SDS011;43777;42.656;23.264;2022-07-05T00:34:33;12.70;;;6.95;;
57969;SDS011;43777;42.656;23.264;2022-07-05T00:37:00;8.00;;;7.18;;
57969;SDS011;43777;42.656;23.264;2022-07-05T00:39:26;9.50;;;7.13;;
57969;SDS011;43777;42.656;23.264;2022-07-05T00:41:52;9.35;;;7.35;;
57969;SDS011;43777;42.656;23.264;2022-07-05T00:44:27;9.40;;;6.50;;
57969;SDS011;43777;42.656;23.264;2022-07-05T00:46:53;6.53;;;5.90;;
57969;SDS011;43777;42.656;23.264;2022-07-05T00:49:19;9.32;;;6.47;;
57969;SDS011;43777;42.656;23.264;2022-07-05T00:51:45;8.95;;;7.05;;
57969;SDS011;43777;42.656;23.264;2022-07-05T00:54:11;7.80;;;6.30;;
57969;SDS011;43777;42.656;23.264;2022-07-05T00:56:37;7.43;;;6.35;;
57969;SDS011;43777;42.656;23.264;2022-07-05T00:59:04;7.13;;;6.32;;
57969;SDS011;43777;42.656;23.264;2022-07-05T01:01:30;7.20;;;6.50;;
57969;SDS011;43777;42.656;23.264;2022-07-05T01:03:56;6.55;;;5.85;;
57969;SDS011;43777;42.656;23.264;2022-07-05T01:06:22;10.15;;;7.13;;
57969;SDS011;43777;42.656;23.264;2022-07-05T01:08:49;12.55;;;6.53;;
57969;SDS011;43777;42.656;23.264;2022-07-05T01:11:15;10.70;;;6.25;;
57969;SDS011;43777;42.656;23.264;2022-07-05T01:13:41;7.20;;;6.50;;
57969;SDS011;43777;42.656;23.264;2022-07-05T01:16:07;10.32;;;6.47;;
57969;SDS011;43777;42.656;23.264;2022-07-05T01:18:33;8.15;;;6.55;;
57969;SDS011;43777;42.656;23.264;2022-07-05T01:21:00;9.40;;;6.15;;
57969;SDS011;43777;42.656;23.264;2022-07-05T01:23:27;7.53;;;6.80;;
57969;SDS011;43777;42.656;23.264;2022-07-05T01:25:54;7.53;;;5.85;;
57969;SDS011;43777;42.656;23.264;2022-07-05T01:28:21;8.68;;;6.60;;
57969;SDS011;43777;42.656;23.264;2022-07-05T01:30:47;10.73;;;6.20;;
57969;SDS011;43777;42.656;23.264;2022-07-05T01:33:14;7.50;;;6.63;;
57969;SDS011;43777;42.656;23.264;2022-07-05T01:35:40;8.45;;;6.32;;
57969;SDS011;43777;42.656;23.264;2022-07-05T01:38:09;9.85;;;6.50;;
57969;SDS011;43777;42.656;23.264;2022-07-05T01:40:36;7.28;;;6.40;;
57969;SDS011;43777;42.656;23.264;2022-07-05T01:43:03;9.52;;;6.53;;
57969;SDS011;43777;42.656;23.264;2022-07-05T01:45:29;8.25;;;6.47;;
57969;SDS011;43777;42.656;23.264;2022-07-05T01:48:23;6.78;;;6.07;;
57969;SDS011;43777;42.656;23.264;2022-07-05T01:51:51;6.80;;;6.22;;
57969;SDS011;43777;42.656;23.264;2022-07-05T01:53:52;8.88;;;5.95;;
57969;SDS011;43777;42.656;23.264;2022-07-05T01:56:19;7.53;;;6.03;;
57969;SDS011;43777;42.656;23.264;2022-07-05T01:58:45;7.78;;;6.72;;
57969;SDS011;43777;42.656;23.264;2022-07-05T02:01:14;8.43;;;6.03;;
57969;SDS011;43777;42.656;23.264;2022-07-05T02:03:40;13.40;;;6.45;;
57969;SDS011;43777;42.656;23.264;2022-07-05T02:06:06;8.00;;;6.38;;
57969;SDS011;43777;42.656;23.264;2022-07-05T02:08:35;7.63;;;6.15;;
57969;SDS011;43777;42.656;23.264;2022-07-05T02:11:02;6.93;;;5.85;;
57969;SDS011;43777;42.656;23.264;2022-07-05T02:13:29;6.95;;;6.35;;
57969;SDS011;43777;42.656;23.264;2022-07-05T02:15:55;8.07;;;6.43;;
57969;SDS011;43777;42.656;23.264;2022-07-05T02:18:21;8.65;;;6.60;;
57969;SDS011;43777;42.656;23.264;2022-07-05T02:20:47;9.25;;;6.07;;
57969;SDS011;43777;42.656;23.264;2022-07-05T02:23:13;6.90;;;6.30;;
57969;SDS011;43777;42.656;23.264;2022-07-05T02:25:39;24.88;;;7.95;;
57969;SDS011;43777;42.656;23.264;2022-07-05T02:28:05;12.50;;;6.85;;
57969;SDS011;43777;42.656;23.264;2022-07-05T02:30:31;9.57;;;6.80;;
57969;SDS011;43777;42.656;23.264;2022-07-05T02:32:57;8.88;;;6.50;;
57969;SDS011;43777;42.656;23.264;2022-07-05T02:35:23;9.13;;;6.47;;
57969;SDS011;43777;42.656;23.264;2022-07-05T02:37:49;43.90;;;9.73;;
57969;SDS011;43777;42.656;23.264;2022-07-05T02:40:15;11.95;;;7.18;;
57969;SDS011;43777;42.656;23.264;2022-07-05T02:42:41;9.70;;;7.05;;
57969;SDS011;43777;42.656;23.264;2022-07-05T02:45:08;8.02;;;6.70;;
57969;SDS011;43777;42.656;23.264;2022-07-05T02:47:34;8.18;;;6.28;;
57969;SDS011;43777;42.656;23.264;2022-07-05T02:50:07;7.30;;;6.13;;
57969;SDS011;43777;42.656;23.264;2022-07-05T02:52:34;7.80;;;6.72;;
57969;SDS011;43777;42.656;23.264;2022-07-05T02:55:01;8.57;;;6.78;;
57969;SDS011;43777;42.656;23.264;2022-07-05T02:57:27;7.97;;;6.40;;
57969;SDS011;43777;42.656;23.264;2022-07-05T02:59:53;9.77;;;7.15;;
57969;SDS011;43777;42.656;23.264;2022-07-05T03:02:20;9.80;;;7.40;;
57969;SDS011;43777;42.656;23.264;2022-07-05T03:04:46;7.68;;;6.88;;
57969;SDS011;43777;42.656;23.264;2022-07-05T03:07:12;8.80;;;6.88;;
57969;SDS011;43777;42.656;23.264;2022-07-05T03:09:38;7.45;;;6.75;;
57969;SDS011;43777;42.656;23.264;2022-07-05T03:12:05;7.15;;;6.45;;
57969;SDS011;43777;42.656;23.264;2022-07-05T03:14:31;10.68;;;6.63;;
57969;SDS011;43777;42.656;23.264;2022-07-05T03:16:57;9.30;;;7.22;;
57969;SDS011;43777;42.656;23.264;2022-07-05T03:19:23;8.13;;;6.70;;
57969;SDS011;43777;42.656;23.264;2022-07-05T03:21:49;7.22;;;6.53;;
57969;SDS011;43777;42.656;23.264;2022-07-05T03:24:15;10.88;;;7.28;;
57969;SDS011;43777;42.656;23.264;2022-07-05T03:26:41;8.13;;;7.32;;
57969;SDS011;43777;42.656;23.264;2022-07-05T03:29:07;7.22;;;6.53;;
57969;SDS011;43777;42.656;23.264;2022-07-05T03:31:34;7.68;;;6.97;;
57969;SDS011;43777;42.656;23.264;2022-07-05T03:34:00;10.23;;;6.50;;
57969;SDS011;43777;42.656;23.264;2022-07-05T03:36:31;9.73;;;7.32;;
57969;SDS011;43777;42.656;23.264;2022-07-05T03:39:06;7.95;;;7.15;;
57969;SDS011;43777;42.656;23.264;2022-07-05T03:41:36;14.57;;;7.93;;
57969;SDS011;43777;42.656;23.264;2022-07-05T03:44:02;8.15;;;7.35;;
57969;SDS011;43777;42.656;23.264;2022-07-05T03:46:28;28.83;;;8.25;;
57969;SDS011;43777;42.656;23.264;2022-07-05T03:48:57;10.68;;;7.63;;
57969;SDS011;43777;42.656;23.264;2022-07-05T03:51:46;9.45;;;7.05;;
57969;SDS011;43777;42.656;23.264;2022-07-05T03:54:12;16.52;;;7.60;;
57969;SDS011;43777;42.656;23.264;2022-07-05T03:56:38;15.88;;;7.47;;
57969;SDS011;43777;42.656;23.264;2022-07-05T03:59:04;9.75;;;7.68;;
57969;SDS011;43777;42.656;23.264;2022-07-05T04:01:31;12.43;;;7.50;;
57969;SDS011;43777;42.656;23.264;2022-07-05T04:03:57;9.32;;;7.70;;
57969;SDS011;43777;42.656;23.264;2022-07-05T04:06:23;9.30;;;7.10;;
57969;SDS011;43777;42.656;23.264;2022-07-05T04:08:49;11.00;;;6.80;;
57969;SDS011;43777;42.656;23.264;2022-07-05T04:11:15;11.55;;;7.47;;
57969;SDS011;43777;42.656;23.264;2022-07-05T04:13:42;10.00;;;7.35;;
57969;SDS011;43777;42.656;23.264;2022-07-05T04:16:08;11.20;;;7.20;;
57969;SDS011;43777;42.656;23.264;2022-07-05T04:18:34;12.85;;;6.40;;
57969;SDS011;43777;42.656;23.264;2022-07-05T04:21:01;20.83;;;7.72;;
57969;SDS011;43777;42.656;23.264;2022-07-05T04:23:33;21.40;;;7.32;;
57969;SDS011;43777;42.656;23.264;2022-07-05T04:26:00;11.18;;;6.22;;
57969;SDS011;43777;42.656;23.264;2022-07-05T04:28:27;8.30;;;6.18;;
57969;SDS011;43777;42.656;23.264;2022-07-05T04:30:55;9.63;;;5.78;;
57969;SDS011;43777;42.656;23.264;2022-07-05T04:33:21;7.25;;;6.55;;
57969;SDS011;43777;42.656;23.264;2022-07-05T04:35:47;17.40;;;7.15;;
57969;SDS011;43777;42.656;23.264;2022-07-05T04:38:13;23.85;;;6.85;;
57969;SDS011;43777;42.656;23.264;2022-07-05T04:40:39;13.70;;;7.20;;
57969;SDS011;43777;42.656;23.264;2022-07-05T04:43:06;10.27;;;7.05;;
57969;SDS011;43777;42.656;23.264;2022-07-05T04:45:32;15.70;;;7.20;;
57969;SDS011;43777;42.656;23.264;2022-07-05T04:47:58;9.52;;;7.80;;
57969;SDS011;43777;42.656;23.264;2022-07-05T04:50:24;13.50;;;8.20;;
57969;SDS011;43777;42.656;23.264;2022-07-05T04:52:51;11.52;;;8.05;;
57969;SDS011;43777;42.656;23.264;2022-07-05T04:55:17;14.18;;;7.50;;
57969;SDS011;43777;42.656;23.264;2022-07-05T04:57:43;9.60;;;8.00;;
57969;SDS011;43777;42.656;23.264;2022-07-05T05:00:10;17.30;;;8.40;;
57969;SDS011;43777;42.656;23.264;2022-07-05T05:02:37;11.88;;;8.30;;
57969;SDS011;43777;42.656;23.264;2022-07-05T05:05:03;12.57;;;7.80;;
57969;SDS011;43777;42.656;23.264;2022-07-05T05:07:29;12.65;;;7.93;;
57969;SDS011;43777;42.656;23.264;2022-07-05T05:09:55;11.15;;;8.30;;
57969;SDS011;43777;42.656;23.264;2022-07-05T05:12:21;14.55;;;7.60;;
57969;SDS011;43777;42.656;23.264;2022-07-05T05:14:48;8.45;;;7.43;;
57969;SDS011;43777;42.656;23.264;2022-07-05T05:17:14;7.70;;;6.78;;
57969;SDS011;43777;42.656;23.264;2022-07-05T05:19:40;7.65;;;6.75;;
57969;SDS011;43777;42.656;23.264;2022-07-05T05:22:06;39.35;;;8.32;;
57969;SDS011;43777;42.656;23.264;2022-07-05T05:24:32;9.13;;;6.38;;
57969;SDS011;43777;42.656;23.264;2022-07-05T05:27:00;15.57;;;6.80;;
57969;SDS011;43777;42.656;23.264;2022-07-05T05:29:26;9.23;;;6.57;;
57969;SDS011;43777;42.656;23.264;2022-07-05T05:31:52;21.13;;;7.38;;
57969;SDS011;43777;42.656;23.264;2022-07-05T05:34:18;12.55;;;6.82;;
57969;SDS011;43777;42.656;23.264;2022-07-05T05:36:44;17.38;;;7.70;;
57969;SDS011;43777;42.656;23.264;2022-07-05T05:39:10;13.05;;;7.10;;
57969;SDS011;43777;42.656;23.264;2022-07-05T05:41:36;10.25;;;7.10;;
57969;SDS011;43777;42.656;23.264;2022-07-05T05:44:03;7.78;;;6.57;;
57969;SDS011;43777;42.656;23.264;2022-07-05T05:46:29;12.35;;;6.15;;
57969;SDS011;43777;42.656;23.264;2022-07-05T05:48:55;12.93;;;6.80;;
57969;SDS011;43777;42.656;23.264;2022-07-05T05:51:21;11.77;;;7.07;;
57969;SDS011;43777;42.656;23.264;2022-07-05T05:53:47;13.38;;;6.80;;
57969;SDS011;43777;42.656;23.264;2022-07-05T05:56:13;29.48;;;7.55;;
57969;SDS011;43777;42.656;23.264;2022-07-05T05:58:40;14.13;;;6.85;;
57969;SDS011;43777;42.656;23.264;2022-07-05T06:01:06;9.02;;;6.80;;
57969;SDS011;43777;42.656;23.264;2022-07-05T06:03:32;24.45;;;7.63;;
57969;SDS011;43777;42.656;23.264;2022-07-05T06:05:58;10.63;;;6.72;;
57969;SDS011;43777;42.656;23.264;2022-07-05T06:08:25;9.00;;;6.57;;
57969;SDS011;43777;42.656;23.264;2022-07-05T06:10:51;11.38;;;6.35;;
57969;SDS011;43777;42.656;23.264;2022-07-05T06:13:17;8.65;;;6.22;;
57969;SDS011;43777;42.656;23.264;2022-07-05T06:15:43;8.80;;;6.55;;
57969;SDS011;43777;42.656;23.264;2022-07-05T06:18:10;13.57;;;6.22;;
57969;SDS011;43777;42.656;23.264;2022-07-05T06:20:38;12.25;;;6.97;;
57969;SDS011;43777;42.656;23.264;2022-07-05T06:23:05;11.90;;;6.97;;
57969;SDS011;43777;42.656;23.264;2022-07-05T06:25:32;13.00;;;6.22;;
57969;SDS011;43777;42.656;23.264;2022-07-05T06:27:59;17.35;;;6.43;;
57969;SDS011;43777;42.656;23.264;2022-07-05T06:30:26;12.13;;;6.63;;
57969;SDS011;43777;42.656;23.264;2022-07-05T06:32:53;30.63;;;7.90;;
57969;SDS011;43777;42.656;23.264;2022-07-05T06:35:19;15.88;;;6.80;;
57969;SDS011;43777;42.656;23.264;2022-07-05T06:37:50;13.63;;;6.55;;
57969;SDS011;43777;42.656;23.264;2022-07-05T06:40:22;15.23;;;6.90;;
57969;SDS011;43777;42.656;23.264;2022-07-05T06:42:49;12.82;;;6.47;;
57969;SDS011;43777;42.656;23.264;2022-07-05T06:45:15;12.05;;;6.72;;
57969;SDS011;43777;42.656;23.264;2022-07-05T06:47:42;48.60;;;10.43;;
57969;SDS011;43777;42.656;23.264;2022-07-05T06:50:08;27.88;;;7.20;;
57969;SDS011;43777;42.656;23.264;2022-07-05T06:52:37;17.80;;;6.78;;
57969;SDS011;43777;42.656;23.264;2022-07-05T06:55:04;11.68;;;6.82;;
57969;SDS011;43777;42.656;23.264;2022-07-05T06:57:31;66.72;;;11.25;;
57969;SDS011;43777;42.656;23.264;2022-07-05T06:59:57;15.55;;;7.55;;
57969;SDS011;43777;42.656;23.264;2022-07-05T07:02:23;16.38;;;6.63;;
57969;SDS011;43777;42.656;23.264;2022-07-05T07:04:49;11.07;;;7.55;;
57969;SDS011;43777;42.656;23.264;2022-07-05T07:07:15;9.43;;;6.60;;
57969;SDS011;43777;42.656;23.264;2022-07-05T07:10:01;12.00;;;6.97;;
57969;SDS011;43777;42.656;23.264;2022-07-05T07:12:27;9.75;;;7.10;;
57969;SDS011;43777;42.656;23.264;2022-07-05T07:14:54;10.52;;;7.72;;
57969;SDS011;43777;42.656;23.264;2022-07-05T07:17:20;13.70;;;7.28;;
57969;SDS011;43777;42.656;23.264;2022-07-05T07:19:47;11.10;;;7.32;;
57969;SDS011;43777;42.656;23.264;2022-07-05T07:22:13;13.70;;;6.78;;
57969;SDS011;43777;42.656;23.264;2022-07-05T07:24:39;17.40;;;7.25;;
57969;SDS011;43777;42.656;23.264;2022-07-05T07:27:05;14.20;;;7.35;;
57969;SDS011;43777;42.656;23.264;2022-07-05T07:29:36;19.45;;;8.45;;
57969;SDS011;43777;42.656;23.264;2022-07-05T07:32:04;22.80;;;8.77;;
57969;SDS011;43777;42.656;23.264;2022-07-05T07:34:31;10.30;;;8.00;;
57969;SDS011;43777;42.656;23.264;2022-07-05T07:36:58;12.43;;;7.97;;
57969;SDS011;43777;42.656;23.264;2022-07-05T07:39:24;12.43;;;7.78;;
57969;SDS011;43777;42.656;23.264;2022-07-05T07:41:51;29.83;;;7.82;;
57969;SDS011;43777;42.656;23.264;2022-07-05T07:44:17;54.45;;;10.90;;
57969;SDS011;43777;42.656;23.264;2022-07-05T07:46:45;50.20;;;9.95;;
57969;SDS011;43777;42.656;23.264;2022-07-05T07:49:11;14.75;;;7.75;;
57969;SDS011;43777;42.656;23.264;2022-07-05T07:51:37;32.60;;;9.60;;
57969;SDS011;43777;42.656;23.264;2022-07-05T07:54:03;14.75;;;7.78;;
57969;SDS011;43777;42.656;23.264;2022-07-05T07:56:29;11.93;;;7.40;;
57969;SDS011;43777;42.656;23.264;2022-07-05T07:58:56;17.95;;;8.65;;
57969;SDS011;43777;42.656;23.264;2022-07-05T08:01:22;12.20;;;8.35;;
57969;SDS011;43777;42.656;23.264;2022-07-05T08:03:48;11.70;;;7.93;;
57969;SDS011;43777;42.656;23.264;2022-07-05T08:06:14;10.02;;;7.78;;
57969;SDS011;43777;42.656;23.264;2022-07-05T08:08:41;8.85;;;7.35;;
57969;SDS011;43777;42.656;23.264;2022-07-05T08:11:09;8.93;;;7.50;;
57969;SDS011;43777;42.656;23.264;2022-07-05T08:13:36;21.83;;;8.40;;
57969;SDS011;43777;42.656;23.264;2022-07-05T08:16:02;18.98;;;8.05;;
57969;SDS011;43777;42.656;23.264;2022-07-05T08:18:28;10.52;;;7.35;;
57969;SDS011;43777;42.656;23.264;2022-07-05T08:21:13;13.52;;;8.07;;
57969;SDS011;43777;42.656;23.264;2022-07-05T08:24:07;9.90;;;7.90;;
57969;SDS011;43777;42.656;23.264;2022-07-05T08:26:34;13.45;;;8.23;;
57969;SDS011;43777;42.656;23.264;2022-07-05T08:29:01;9.30;;;8.07;;
57969;SDS011;43777;42.656;23.264;2022-07-05T08:31:28;18.13;;;8.68;;
57969;SDS011;43777;42.656;23.264;2022-07-05T08:33:55;16.75;;;8.95;;
57969;SDS011;43777;42.656;23.264;2022-07-05T08:36:22;16.17;;;9.27;;
57969;SDS011;43777;42.656;23.264;2022-07-05T08:38:48;12.93;;;9.02;;
57969;SDS011;43777;42.656;23.264;2022-07-05T08:41:16;15.18;;;9.20;;
57969;SDS011;43777;42.656;23.264;2022-07-05T08:43:43;9.65;;;8.65;;
57969;SDS011;43777;42.656;23.264;2022-07-05T08:46:11;13.25;;;9.25;;
57969;SDS011;43777;42.656;23.264;2022-07-05T08:48:38;9.15;;;8.25;;
57969;SDS011;43777;42.656;23.264;2022-07-05T08:51:11;15.75;;;8.60;;
57969;SDS011;43777;42.656;23.264;2022-07-05T08:53:38;13.40;;;8.43;;
57969;SDS011;43777;42.656;23.264;2022-07-05T08:56:05;30.08;;;11.32;;
57969;SDS011;43777;42.656;23.264;2022-07-05T08:58:32;20.98;;;10.00;;
57969;SDS011;43777;42.656;23.264;2022-07-05T09:00:59;16.15;;;9.18;;
57969;SDS011;43777;42.656;23.264;2022-07-05T09:03:28;13.13;;;9.23;;
57969;SDS011;43777;42.656;23.264;2022-07-05T09:05:57;13.43;;;8.73;;
57969;SDS011;43777;42.656;23.264;2022-07-05T09:08:24;13.20;;;9.07;;
57969;SDS011;43777;42.656;23.264;2022-07-05T09:10:51;12.13;;;8.90;;
57969;SDS011;43777;42.656;23.264;2022-07-05T09:13:18;9.68;;;8.70;;
57969;SDS011;43777;42.656;23.264;2022-07-05T09:15:44;15.10;;;8.88;;
57969;SDS011;43777;42.656;23.264;2022-07-05T09:18:10;13.18;;;9.45;;
57969;SDS011;43777;42.656;23.264;2022-07-05T09:20:36;17.02;;;10.00;;
57969;SDS011;43777;42.656;23.264;2022-07-05T09:23:02;12.13;;;9.90;;
57969;SDS011;43777;42.656;23.264;2022-07-05T09:25:29;12.55;;;8.80;;
57969;SDS011;43777;42.656;23.264;2022-07-05T09:28:00;12.35;;;9.23;;
57969;SDS011;43777;42.656;23.264;2022-07-05T09:30:33;12.70;;;9.25;;
57969;SDS011;43777;42.656;23.264;2022-07-05T09:35:32;13.75;;;8.95;;
57969;SDS011;43777;42.656;23.264;2022-07-05T09:37:58;15.85;;;9.43;;
57969;SDS011;43777;42.656;23.264;2022-07-05T09:40:28;18.73;;;9.60;;
57969;SDS011;43777;42.656;23.264;2022-07-05T09:43:09;24.60;;;10.27;;
57969;SDS011;43777;42.656;23.264;2022-07-05T09:45:35;12.55;;;9.35;;
57969;SDS011;43777;42.656;23.264;2022-07-05T09:48:01;13.20;;;9.32;;
57969;SDS011;43777;42.656;23.264;2022-07-05T09:50:33;14.27;;;9.50;;
57969;SDS011;43777;42.656;23.264;2022-07-05T09:52:59;12.25;;;8.73;;
57969;SDS011;43777;42.656;23.264;2022-07-05T09:55:25;14.38;;;8.85;;
57969;SDS011;43777;42.656;23.264;2022-07-05T09:57:51;13.70;;;9.40;;
57969;SDS011;43777;42.656;23.264;2022-07-05T10:00:20;14.68;;;9.48;;
57969;SDS011;43777;42.656;23.264;2022-07-05T10:02:49;11.60;;;9.05;;
57969;SDS011;43777;42.656;23.264;2022-07-05T10:07:46;9.73;;;8.82;;
57969;SDS011;43777;42.656;23.264;2022-07-05T10:10:14;12.73;;;9.10;;
57969;SDS011;43777;42.656;23.264;2022-07-05T10:12:41;14.23;;;9.48;;
57969;SDS011;43777;42.656;23.264;2022-07-05T10:15:08;10.73;;;9.10;;
57969;SDS011;43777;42.656;23.264;2022-07-05T10:17:42;10.98;;;9.13;;
57969;SDS011;43777;42.656;23.264;2022-07-05T10:22:39;12.25;;;9.18;;
57969;SDS011;43777;42.656;23.264;2022-07-05T10:25:05;10.95;;;9.45;;
57969;SDS011;43777;42.656;23.264;2022-07-05T10:27:32;10.60;;;9.57;;
57969;SDS011;43777;42.656;23.264;2022-07-05T10:29:58;14.35;;;9.15;;
57969;SDS011;43777;42.656;23.264;2022-07-05T10:32:24;17.17;;;10.38;;
57969;SDS011;43777;42.656;23.264;2022-07-05T10:34:51;12.63;;;9.77;;
57969;SDS011;43777;42.656;23.264;2022-07-05T10:37:17;11.73;;;8.98;;
57969;SDS011;43777;42.656;23.264;2022-07-05T10:39:43;13.90;;;9.02;;
57969;SDS011;43777;42.656;23.264;2022-07-05T10:42:10;10.55;;;9.15;;
57969;SDS011;43777;42.656;23.264;2022-07-05T10:44:37;11.23;;;9.70;;
57969;SDS011;43777;42.656;23.264;2022-07-05T10:47:07;10.43;;;9.13;;
57969;SDS011;43777;42.656;23.264;2022-07-05T10:49:34;10.70;;;9.23;;
57969;SDS011;43777;42.656;23.264;2022-07-05T10:52:01;11.05;;;9.18;;
57969;SDS011;43777;42.656;23.264;2022-07-05T10:54:27;10.38;;;8.52;;
57969;SDS011;43777;42.656;23.264;2022-07-05T11:00:24;13.70;;;8.60;;
57969;SDS011;43777;42.656;23.264;2022-07-05T11:02:25;9.90;;;8.30;;
57969;SDS011;43777;42.656;23.264;2022-07-05T11:04:54;16.42;;;8.40;;
57969;SDS011;43777;42.656;23.264;2022-07-05T11:10:30;10.38;;;8.85;;
57969;SDS011;43777;42.656;23.264;2022-07-05T11:12:57;11.23;;;9.00;;
57969;SDS011;43777;42.656;23.264;2022-07-05T11:15:24;12.00;;;8.88;;
57969;SDS011;43777;42.656;23.264;2022-07-05T11:17:50;12.32;;;8.70;;
57969;SDS011;43777;42.656;23.264;2022-07-05T11:20:36;11.32;;;8.30;;
57969;SDS011;43777;42.656;23.264;2022-07-05T11:23:09;9.70;;;8.80;;
57969;SDS011;43777;42.656;23.264;2022-07-05T11:25:37;10.23;;;8.57;;
57969;SDS011;43777;42.656;23.264;2022-07-05T11:28:05;9.63;;;8.68;;
57969;SDS011;43777;42.656;23.264;2022-07-05T11:30:43;9.50;;;8.60;;
57969;SDS011;43777;42.656;23.264;2022-07-05T11:33:25;22.27;;;9.50;;
57969;SDS011;43777;42.656;23.264;2022-07-05T11:35:51;10.30;;;8.38;;
57969;SDS011;43777;42.656;23.264;2022-07-05T11:38:17;11.98;;;8.50;;
57969;SDS011;43777;42.656;23.264;2022-07-05T11:40:43;11.35;;;8.73;;
57969;SDS011;43777;42.656;23.264;2022-07-05T11:43:09;10.57;;;8.98;;
57969;SDS011;43777;42.656;23.264;2022-07-05T11:45:36;16.52;;;10.10;;
57969;SDS011;43777;42.656;23.264;2022-07-05T11:48:03;11.25;;;8.48;;
57969;SDS011;43777;42.656;23.264;2022-07-05T11:50:31;12.02;;;9.90;;
57969;SDS011;43777;42.656;23.264;2022-07-05T11:53:01;11.95;;;9.07;;
57969;SDS011;43777;42.656;23.264;2022-07-05T11:55:28;9.98;;;8.85;;
57969;SDS011;43777;42.656;23.264;2022-07-05T11:57:54;13.68;;;9.13;;
57969;SDS011;43777;42.656;23.264;2022-07-05T12:00:25;9.70;;;8.73;;
57969;SDS011;43777;42.656;23.264;2022-07-05T12:02:51;10.15;;;9.13;;
57969;SDS011;43777;42.656;23.264;2022-07-05T12:05:18;14.32;;;9.52;;
57969;SDS011;43777;42.656;23.264;2022-07-05T12:07:48;13.77;;;9.05;;
57969;SDS011;43777;42.656;23.264;2022-07-05T12:10:15;10.15;;;8.45;;
57969;SDS011;43777;42.656;23.264;2022-07-05T12:13:04;13.48;;;9.15;;
57969;SDS011;43777;42.656;23.264;2022-07-05T12:15:30;10.20;;;9.20;;
57969;SDS011;43777;42.656;23.264;2022-07-05T12:17:56;12.85;;;9.75;;
57969;SDS011;43777;42.656;23.264;2022-07-05T12:20:28;11.55;;;8.35;;
57969;SDS011;43777;42.656;23.264;2022-07-05T12:22:54;10.23;;;9.18;;
57969;SDS011;43777;42.656;23.264;2022-07-05T12:25:21;11.80;;;8.77;;
57969;SDS011;43777;42.656;23.264;2022-07-05T12:27:47;10.10;;;8.95;;
57969;SDS011;43777;42.656;23.264;2022-07-05T12:30:14;15.00;;;9.32;;
57969;SDS011;43777;42.656;23.264;2022-07-05T12:40:29;10.32;;;8.30;;
57969;SDS011;43777;42.656;23.264;2022-07-05T12:43:02;9.45;;;8.55;;
57969;SDS011;43777;42.656;23.264;2022-07-05T12:45:29;9.65;;;8.65;;
57969;SDS011;43777;42.656;23.264;2022-07-05T12:47:57;10.43;;;9.13;;
57969;SDS011;43777;42.656;23.264;2022-07-05T12:50:23;9.82;;;8.75;;
57969;SDS011;43777;42.656;23.264;2022-07-05T12:52:53;14.85;;;8.52;;
57969;SDS011;43777;42.656;23.264;2022-07-05T12:55:20;10.25;;;9.30;;
57969;SDS011;43777;42.656;23.264;2022-07-05T12:58:05;12.55;;;9.13;;
57969;SDS011;43777;42.656;23.264;2022-07-05T13:00:31;12.75;;;9.38;;
57969;SDS011;43777;42.656;23.264;2022-07-05T13:02:57;13.95;;;9.02;;
57969;SDS011;43777;42.656;23.264;2022-07-05T13:05:24;9.82;;;8.82;;
57969;SDS011;43777;42.656;23.264;2022-07-05T13:07:50;11.32;;;9.10;;
57969;SDS011;43777;42.656;23.264;2022-07-05T13:10:17;18.52;;;10.02;;
57969;SDS011;43777;42.656;23.264;2022-07-05T13:12:44;14.63;;;9.43;;
57969;SDS011;43777;42.656;23.264;2022-07-05T13:15:10;10.07;;;9.13;;
57969;SDS011;43777;42.656;23.264;2022-07-05T13:17:37;13.90;;;9.32;;
57969;SDS011;43777;42.656;23.264;2022-07-05T13:20:03;14.15;;;9.25;;
57969;SDS011;43777;42.656;23.264;2022-07-05T13:22:29;13.93;;;8.98;;
57969;SDS011;43777;42.656;23.264;2022-07-05T13:24:55;13.45;;;8.95;;
57969;SDS011;43777;42.656;23.264;2022-07-05T13:27:21;16.00;;;10.60;;
57969;SDS011;43777;42.656;23.264;2022-07-05T13:29:47;20.25;;;10.18;;
57969;SDS011;43777;42.656;23.264;2022-07-05T13:32:14;10.60;;;9.18;;
57969;SDS011;43777;42.656;23.264;2022-07-05T13:34:46;12.10;;;9.40;;
57969;SDS011;43777;42.656;23.264;2022-07-05T13:37:13;13.30;;;9.15;;
57969;SDS011;43777;42.656;23.264;2022-07-05T13:39:39;10.23;;;8.80;;
57969;SDS011;43777;42.656;23.264;2022-07-05T13:42:05;11.10;;;8.57;;
57969;SDS011;43777;42.656;23.264;2022-07-05T13:44:32;10.25;;;9.25;;
57969;SDS011;43777;42.656;23.264;2022-07-05T13:46:58;11.32;;;9.10;;
57969;SDS011;43777;42.656;23.264;2022-07-05T13:49:24;14.85;;;9.70;;
57969;SDS011;43777;42.656;23.264;2022-07-05T13:51:50;12.15;;;9.05;;
57969;SDS011;43777;42.656;23.264;2022-07-05T13:54:16;12.13;;;9.15;;
57969;SDS011;43777;42.656;23.264;2022-07-05T13:56:43;10.55;;;8.52;;
57969;SDS011;43777;42.656;23.264;2022-07-05T13:59:09;12.68;;;8.75;;
57969;SDS011;43777;42.656;23.264;2022-07-05T14:01:35;9.43;;;8.50;;
57969;SDS011;43777;42.656;23.264;2022-07-05T14:04:01;11.68;;;9.18;;
57969;SDS011;43777;42.656;23.264;2022-07-05T14:06:31;10.40;;;9.45;;
57969;SDS011;43777;42.656;23.264;2022-07-05T14:09:00;12.55;;;9.02;;
57969;SDS011;43777;42.656;23.264;2022-07-05T14:11:27;12.18;;;9.55;;
57969;SDS011;43777;42.656;23.264;2022-07-05T14:13:53;11.35;;;9.50;;
57969;SDS011;43777;42.656;23.264;2022-07-05T14:16:19;11.73;;;9.20;;
57969;SDS011;43777;42.656;23.264;2022-07-05T14:18:45;15.20;;;9.43;;
57969;SDS011;43777;42.656;23.264;2022-07-05T14:21:12;16.75;;;9.63;;
57969;SDS011;43777;42.656;23.264;2022-07-05T14:23:49;10.60;;;9.40;;
57969;SDS011;43777;42.656;23.264;2022-07-05T14:26:15;10.68;;;9.38;;
57969;SDS011;43777;42.656;23.264;2022-07-05T14:28:41;16.75;;;10.07;;
57969;SDS011;43777;42.656;23.264;2022-07-05T14:31:08;10.50;;;9.02;;
57969;SDS011;43777;42.656;23.264;2022-07-05T14:33:34;13.98;;;9.82;;
57969;SDS011;43777;42.656;23.264;2022-07-05T14:36:02;9.65;;;8.75;;
57969;SDS011;43777;42.656;23.264;2022-07-05T14:38:29;12.40;;;9.15;;
57969;SDS011;43777;42.656;23.264;2022-07-05T14:40:55;15.50;;;10.02;;
57969;SDS011;43777;42.656;23.264;2022-07-05T14:43:21;13.73;;;9.65;;
57969;SDS011;43777;42.656;23.264;2022-07-05T14:45:47;20.42;;;10.38;;
57969;SDS011;43777;42.656;23.264;2022-07-05T14:48:13;15.98;;;9.70;;